KDVT/DVT METAR and TAF weather

Enter ICAO airport designator
Station Type Date Time Source
KDVT METAR 2019/08/24 08:53 UTC NOAA

KDVT 240853Z AUTO 30009KT 10SM CLR 31/18 A2993 RMK AO2 SLP105 T03060183 51020


Station Type Date Time Source
KDVT Decoded METAR 2019/08/24 08:53 UTC NOAA

Station name not available
Aug 24, 2019 - 04:53 AM EDT / 2019.08.24 0853 UTC
Wind: from the WNW (300 degrees) at 10 MPH (9 KT):0
Visibility: 10 mile(s):0
Sky conditions: clear
Temperature: 87.1 F (30.6 C)
Dew Point: 64.9 F (18.3 C)
Relative Humidity: 47%
Pressure (altimeter): 29.93 in. Hg (1013 hPa)
Pressure tendency: 0.06 inches (2.0 hPa) higher than three hours ago
ob: KDVT 240853Z AUTO 30009KT 10SM CLR 31/18 A2993 RMK AO2 SLP105 T03060183 51020
cycle: 9

Station Type Date Time Source
KDVT TAF 2019/08/24 07:22 UTC NOAA

TAF
AMD KDVT 240720Z 2407/2506 24010KT P6SM FEW100 SCT150 SCT250
TEMPO 2407/2409 24015G22KT
FM241200 25005KT P6SM FEW080 BKN140 BKN200
FM241800 26008KT P6SM FEW080 FEW120 SCT250

Example: see airport list